Aérodrome :
LOGIN :

S'inscrire | Disclaimer

   EN    FR    IT 

 










Légende :    VFR   VFR Marginal   IFR   IFR Intensif   IFR Très Intensif
Visi : 
Plafond : 
>= 8 km
>= 3000ft
5 à 8 km
1000 à 3000 ft
1500m à 5 km
500 à 1000 ft
800 à 1500m
200 à 500 ft
< 800m
< 200 ft
Symboles :   Orages  Brouillard  Fortes neiges  Fortes précipitations  Vent > 20 kt
SIGMETs :   Divers  Orages  Givrage  Turbulence  Onde Orograph.  Cendres Volcan.






- Altitude de l'aérodrome : 162 ft
- Code IATA : BOD


LFBD - Bordeaux / Merignac

DERNIER METAR :
  • 170300Z AUTO 15003KT 9999 3800 FEW023/// SCT056/// BKN068/// ///TCU 17/15 Q1012 TEMPO 4000 -SHRA BKN010 SCT030CB

METARs EXPIRÉS :
  • 170230Z AUTO 17003KT 9999 FEW025 BKN058 BKN088 17/15 Q1012 TEMPO 4000 -SHRA BKN010 SCT030CB
  • 170200Z AUTO 17003KT CAVOK 17/15 Q1012 TEMPO 4000 -SHRA BKN010 SCT030CB
  • 170130Z AUTO 19004KT 9999 NSC 17/15 Q1013 TEMPO 4000 -SHRA BKN010 SCT030CB
  • 170100Z AUTO VRB01KT 9999 ///CB 17/15 Q1013 TEMPO 4000 -SHRA BKN010 SCT030CB
  • 170030Z AUTO 16002KT CAVOK 17/15 Q1013 TEMPO 4000 -SHRA BKN010 SCT030CB
  • 170000Z AUTO 20003KT CAVOK 17/15 Q1013 TEMPO 4000 -SHRA BKN010 SCT030CB
  • 162330Z AUTO 20006KT 9999 //////TCU 17/15 Q1013 TEMPO 4000 -SHRA BKN010 SCT030CB
  • 162300Z AUTO 21003KT CAVOK 18/15 Q1013 TEMPO 4000 -SHRA BKN010 SCT030CB
  • 162230Z AUTO 21002KT CAVOK 18/15 Q1013 TEMPO 4000 -SHRA BKN010 SCT030CB

TAF TAF LFBD
Valide du 17 à 00h jusqu'au 18 à 06h UTC


162300Z 1700/1806 21005KT 9999 BKN040 TX28/1714Z TN15/1704Z
TEMPO 1700/1706 4000 -SHRA BKN030TCU
PROB30
TEMPO 1700/1706 -TSRA BKN010 SCT030CB
TEMPO 1718/1724 VRB15G25KT BKN040CB
TEMPO 1802/1806 BKN020
PROB30
TEMPO 1805/1806 BKN010
ATIS : +33 5 57 92 81 04



MET'MAP, la Météo Aéronautique d'un coup d'oeil ! - Copyright ORBIFLY Décembre 2007 - Disclaimer

ORBIFLY MET'MAP TEAM :

Programmation & Développement : Alexandra Zaïnal
Sur une idée originale de : Baudouin d'Aumeries
Soutien technique & logistique : Manuel Goepfert
Assistance : Marc-Olivier Méhu




SOURCES & CREDITS :

   NOAA